Time;durP1;ratioP1;P1;durP2;ratioP2;P2;SDS_P1;SDS_P2;PMS_P1;PMS_P2;Temp;Humidity;BMP_temperature;BMP_pressure;BME280_temperature;BME280_humidity;BME280_pressure;Samples;Min_cycle;Max_cycle;Signal;HPM_P1;HPM_P2
2023/12/13 00:00:17;;;;;;;13.37;8.97;;;5.50;99.90;;;;;;6181481;23;20418;-61
2023/12/13 00:02:50;;;;;;;22.67;9.30;;;5.60;99.90;;;;;;6182321;23;20413;-62
2023/12/13 00:05:17;;;;;;;17.53;9.50;;;5.60;99.90;;;;;;6181863;23;20441;-62
2023/12/13 00:07:45;;;;;;;15.60;8.77;;;5.60;99.90;;;;;;6181664;23;20458;-61
2023/12/13 00:10:12;;;;;;;14.97;8.97;;;5.60;99.90;;;;;;6181501;23;20381;-64
2023/12/13 00:12:39;;;;;;;14.50;9.27;;;5.60;99.90;;;;;;6181977;23;20396;-62
2023/12/13 00:15:08;;;;;;;20.40;9.30;;;5.60;99.90;;;;;;6181659;23;20394;-63
2023/12/13 00:17:35;;;;;;;14.83;9.10;;;5.60;99.90;;;;;;6181682;23;20464;-60
2023/12/13 00:20:05;;;;;;;17.77;8.80;;;5.60;99.90;;;;;;6181968;23;20405;-62
2023/12/13 00:22:32;;;;;;;11.93;8.17;;;5.60;99.90;;;;;;6181899;23;20401;-63
2023/12/13 00:25:03;;;;;;;16.40;8.60;;;5.60;99.90;;;;;;6182166;23;20426;-63
2023/12/13 00:27:31;;;;;;;15.20;9.17;;;5.60;99.90;;;;;;6182144;23;20378;-62
2023/12/13 00:29:58;;;;;;;16.13;9.07;;;5.60;99.90;;;;;;6181705;23;20418;-62
2023/12/13 00:32:25;;;;;;;13.80;8.50;;;5.60;99.90;;;;;;6156248;23;20401;-63
2023/12/13 00:34:52;;;;;;;11.40;7.60;;;5.60;99.90;;;;;;6181739;23;20409;-63
2023/12/13 00:37:19;;;;;;;17.90;9.03;;;5.60;99.90;;;;;;6181467;23;20444;-64
2023/12/13 00:39:46;;;;;;;18.20;9.83;;;5.60;99.90;;;;;;6181692;23;20931;-62
2023/12/13 00:42:15;;;;;;;19.70;10.63;;;5.60;99.90;;;;;;6181577;23;20445;-64
2023/12/13 00:44:42;;;;;;;18.47;9.53;;;5.60;99.90;;;;;;6181765;23;20747;-62
2023/12/13 00:47:09;;;;;;;17.53;9.97;;;5.60;99.90;;;;;;6180584;23;20441;-63
2023/12/13 00:49:36;;;;;;;15.47;8.47;;;5.60;99.90;;;;;;6181119;23;20398;-63
2023/12/13 00:52:04;;;;;;;16.07;8.20;;;5.50;99.90;;;;;;6181146;23;20408;-62
2023/12/13 00:54:31;;;;;;;22.63;9.37;;;5.60;99.90;;;;;;6181938;23;20410;-62
2023/12/13 00:56:58;;;;;;;17.53;8.97;;;5.60;99.90;;;;;;6180435;23;20386;-61
2023/12/13 00:59:26;;;;;;;19.07;10.50;;;5.50;99.90;;;;;;6182486;23;20481;-61
2023/12/13 01:01:53;;;;;;;16.33;9.40;;;5.50;99.90;;;;;;6181939;23;20416;-60
2023/12/13 01:04:20;;;;;;;21.03;9.60;;;5.60;99.90;;;;;;6181331;23;20430;-64
2023/12/13 01:06:47;;;;;;;17.93;10.53;;;5.60;99.90;;;;;;6181666;23;20386;-62
2023/12/13 01:09:14;;;;;;;17.87;8.60;;;5.60;99.90;;;;;;6181408;23;20409;-62
2023/12/13 01:11:42;;;;;;;17.83;9.10;;;5.60;99.90;;;;;;6181208;23;20429;-62
2023/12/13 01:14:09;;;;;;;17.30;8.63;;;5.60;99.90;;;;;;6181921;23;20413;-62
2023/12/13 01:16:37;;;;;;;18.67;9.30;;;5.60;99.90;;;;;;6180537;23;20406;-61
2023/12/13 01:19:04;;;;;;;21.37;9.30;;;5.60;99.90;;;;;;6181865;23;20428;-63
2023/12/13 01:21:31;;;;;;;17.83;9.70;;;5.60;99.90;;;;;;6181438;23;20406;-63
2023/12/13 01:24:00;;;;;;;25.53;9.80;;;5.60;99.90;;;;;;6181410;23;20421;-63
2023/12/13 01:26:27;;;;;;;18.83;9.50;;;5.70;99.90;;;;;;6181351;23;20404;-61
2023/12/13 01:28:54;;;;;;;18.80;9.60;;;5.70;99.90;;;;;;6181292;23;20390;-63
2023/12/13 01:31:20;;;;;;;19.70;11.33;;;5.70;99.90;;;;;;6182431;23;20440;-59
2023/12/13 01:33:49;;;;;;;21.53;10.03;;;5.70;99.90;;;;;;6182419;23;20398;-62
2023/12/13 01:36:16;;;;;;;21.00;9.87;;;5.70;99.90;;;;;;6182213;23;20401;-61
2023/12/13 01:38:42;;;;;;;19.20;9.90;;;5.80;99.90;;;;;;6182447;23;20433;-62
2023/12/13 01:41:09;;;;;;;17.77;8.97;;;5.70;99.90;;;;;;6182115;23;20386;-60
2023/12/13 01:43:36;;;;;;;20.20;11.17;;;5.70;99.90;;;;;;6181828;23;20409;-62
2023/12/13 01:46:03;;;;;;;17.20;9.03;;;5.70;99.90;;;;;;6182482;23;20382;-62
2023/12/13 01:48:30;;;;;;;20.80;10.53;;;5.70;99.90;;;;;;6181718;23;20397;-63
2023/12/13 01:50:59;;;;;;;15.23;9.87;;;5.70;99.90;;;;;;6181237;23;20436;-63
2023/12/13 01:53:30;;;;;;;21.83;9.83;;;5.70;99.90;;;;;;6181634;23;20406;-62
2023/12/13 01:55:58;;;;;;;20.87;9.87;;;5.70;99.90;;;;;;6180963;23;20390;-63
2023/12/13 01:58:26;;;;;;;16.37;9.70;;;5.70;99.90;;;;;;6180822;23;20454;-62
2023/12/13 02:00:53;;;;;;;21.87;9.30;;;5.70;99.90;;;;;;6181398;23;20417;-59
2023/12/13 02:03:21;;;;;;;17.07;9.00;;;5.70;99.90;;;;;;6181485;23;20461;-62
2023/12/13 02:05:50;;;;;;;22.03;10.67;;;5.70;99.90;;;;;;6181421;23;20393;-62
2023/12/13 02:08:19;;;;;;;17.60;10.03;;;5.70;99.90;;;;;;6181068;23;20491;-63
2023/12/13 02:10:47;;;;;;;19.73;10.00;;;5.70;99.90;;;;;;6181004;23;20426;-62
2023/12/13 02:13:15;;;;;;;17.90;9.27;;;5.80;99.90;;;;;;6181752;23;20462;-61
2023/12/13 02:15:45;;;;;;;20.17;10.00;;;5.80;99.90;;;;;;6181751;23;20478;-60
2023/12/13 02:18:19;;;;;;;15.20;8.60;;;5.80;99.90;;;;;;6184615;23;20446;-63
2023/12/13 02:20:51;;;;;;;16.07;10.47;;;5.80;99.90;;;;;;6184598;23;20401;-62
2023/12/13 02:23:19;;;;;;;15.00;9.37;;;5.80;99.90;;;;;;6184427;23;20401;-61
2023/12/13 02:25:54;;;;;;;17.20;9.40;;;5.80;99.90;;;;;;6184241;23;20393;-63
2023/12/13 02:28:23;;;;;;;19.27;10.23;;;5.80;99.90;;;;;;6184464;23;20382;-62
2023/12/13 02:30:53;;;;;;;17.80;10.20;;;5.80;99.90;;;;;;6184383;23;20481;-62
2023/12/13 02:33:23;;;;;;;15.30;7.83;;;5.80;99.90;;;;;;6184455;23;20398;-62
2023/12/13 02:35:50;;;;;;;14.77;8.20;;;5.80;99.90;;;;;;6184151;23;20405;-62
2023/12/13 02:38:18;;;;;;;17.83;10.83;;;5.80;99.90;;;;;;6184661;23;20448;-62
2023/12/13 02:40:45;;;;;;;10.77;7.03;;;5.80;99.90;;;;;;6184924;23;20406;-60
2023/12/13 02:43:12;;;;;;;15.13;8.20;;;5.80;99.90;;;;;;6184849;23;20729;-62
2023/12/13 02:45:42;;;;;;;13.27;8.40;;;5.80;99.90;;;;;;6184615;23;20398;-62
2023/12/13 02:48:28;;;;;;;12.90;7.80;;;5.80;99.90;;;;;;6184640;23;20412;-62
2023/12/13 02:51:03;;;;;;;13.43;8.10;;;5.80;99.90;;;;;;6184582;23;20417;-61
2023/12/13 02:53:31;;;;;;;10.03;6.93;;;5.80;99.90;;;;;;6184740;23;20402;-61
2023/12/13 02:55:58;;;;;;;14.20;9.73;;;5.80;99.90;;;;;;6184581;23;20401;-61
2023/12/13 02:58:25;;;;;;;12.60;7.67;;;5.70;99.90;;;;;;6183779;23;20441;-61
2023/12/13 03:00:54;;;;;;;11.90;7.93;;;5.80;99.90;;;;;;6184388;23;20405;-61
2023/12/13 03:03:22;;;;;;;14.70;7.90;;;5.80;99.90;;;;;;6184286;23;20421;-62
2023/12/13 03:05:48;;;;;;;17.43;9.70;;;5.80;99.90;;;;;;6184048;23;20454;-61
2023/12/13 03:08:16;;;;;;;13.67;7.67;;;5.80;99.90;;;;;;6184274;23;20417;-63
2023/12/13 03:10:45;;;;;;;14.63;7.50;;;5.80;99.90;;;;;;6183992;23;21011;-63
2023/12/13 03:13:11;;;;;;;10.80;7.43;;;5.80;99.90;;;;;;6184374;23;20405;-61
2023/12/13 03:15:38;;;;;;;17.73;8.30;;;5.80;99.90;;;;;;6184261;23;20409;-63
2023/12/13 03:18:39;;;;;;;16.30;8.00;;;5.80;99.90;;;;;;6183789;23;20409;-62
2023/12/13 03:21:06;;;;;;;13.40;9.03;;;5.80;99.90;;;;;;6155736;23;20437;-61
2023/12/13 03:23:36;;;;;;;14.80;8.07;;;5.80;99.90;;;;;;6184209;23;20433;-63
2023/12/13 03:26:07;;;;;;;15.10;8.77;;;5.90;99.90;;;;;;6183939;23;20404;-63
2023/12/13 03:28:35;;;;;;;19.27;9.50;;;5.90;99.90;;;;;;6182830;23;20394;-62
2023/12/13 03:31:08;;;;;;;15.23;8.10;;;5.90;99.90;;;;;;6182522;23;20429;-62
2023/12/13 03:33:35;;;;;;;14.07;8.40;;;5.90;99.90;;;;;;6182162;23;20414;-61
2023/12/13 03:36:02;;;;;;;14.67;8.30;;;5.90;99.90;;;;;;6182608;23;20410;-63
2023/12/13 03:38:29;;;;;;;12.60;8.10;;;5.90;99.90;;;;;;6182716;23;20441;-62
2023/12/13 03:40:55;;;;;;;13.53;6.90;;;5.90;99.90;;;;;;6182175;23;20405;-63
2023/12/13 03:43:24;;;;;;;20.33;8.87;;;5.90;99.90;;;;;;6182530;23;20429;-62
2023/12/13 03:45:50;;;;;;;16.03;8.63;;;5.90;99.90;;;;;;6182131;23;20410;-61
2023/12/13 03:48:17;;;;;;;13.60;8.93;;;5.90;99.90;;;;;;6182892;23;20405;-61
2023/12/13 03:51:02;;;;;;;14.90;8.07;;;5.90;99.90;;;;;;6182284;23;20441;-63
2023/12/13 03:53:29;;;;;;;10.83;8.10;;;5.90;99.90;;;;;;6182121;23;20421;-57
2023/12/13 03:55:56;;;;;;;16.80;9.73;;;5.90;99.90;;;;;;6182606;23;20405;-62
2023/12/13 03:58:25;;;;;;;13.53;8.53;;;5.90;99.90;;;;;;6181550;23;20406;-62
2023/12/13 04:00:53;;;;;;;15.23;8.23;;;5.90;99.90;;;;;;6182259;23;20417;-62
2023/12/13 04:03:20;;;;;;;16.27;10.03;;;5.90;99.90;;;;;;6181780;23;20429;-63
2023/12/13 04:05:47;;;;;;;19.30;9.20;;;5.90;99.90;;;;;;6182345;23;20401;-59
2023/12/13 04:08:14;;;;;;;12.87;8.50;;;5.90;99.90;;;;;;6181970;23;20409;-62
2023/12/13 04:10:41;;;;;;;11.47;8.03;;;6.00;99.90;;;;;;6182139;23;20430;-60
2023/12/13 04:13:08;;;;;;;18.23;9.10;;;6.00;99.90;;;;;;6181577;23;20409;-63
2023/12/13 04:15:36;;;;;;;15.90;9.30;;;6.00;99.90;;;;;;6181897;23;20417;-63
2023/12/13 04:18:03;;;;;;;21.13;10.60;;;6.00;99.90;;;;;;6182265;23;20401;-62
2023/12/13 04:20:30;;;;;;;14.87;9.07;;;6.00;99.90;;;;;;6181931;23;20476;-61
2023/12/13 04:22:57;;;;;;;14.67;7.60;;;6.00;99.90;;;;;;6181349;23;20426;-62
2023/12/13 04:25:24;;;;;;;21.00;9.70;;;6.10;99.90;;;;;;6181440;23;20390;-62
2023/12/13 04:27:51;;;;;;;13.17;7.83;;;6.10;99.90;;;;;;6182076;23;20401;-62
2023/12/13 04:30:17;;;;;;;16.93;10.20;;;6.10;99.90;;;;;;6182255;23;20426;-61
2023/12/13 04:32:46;;;;;;;19.23;9.27;;;6.10;99.90;;;;;;6182283;23;20698;-62
2023/12/13 04:35:13;;;;;;;22.03;10.07;;;6.20;99.90;;;;;;6181671;23;20418;-61
2023/12/13 04:37:40;;;;;;;14.47;8.37;;;6.20;99.90;;;;;;6181721;23;20433;-62
2023/12/13 04:40:08;;;;;;;18.77;8.97;;;6.20;99.90;;;;;;6181374;23;20457;-63
2023/12/13 04:42:35;;;;;;;18.23;8.90;;;6.20;99.90;;;;;;6181784;23;20402;-61
2023/12/13 04:45:02;;;;;;;26.80;10.67;;;6.30;99.90;;;;;;6181647;23;20410;-63
2023/12/13 04:47:29;;;;;;;11.77;9.60;;;6.30;99.90;;;;;;6181644;23;20408;-60
2023/12/13 04:49:57;;;;;;;16.03;9.90;;;6.30;99.90;;;;;;6181611;23;20430;-62
2023/12/13 04:52:24;;;;;;;14.83;8.77;;;6.30;99.90;;;;;;6181011;23;20405;-62
2023/12/13 04:54:49;;;;;;;18.30;9.40;;;6.30;99.90;;;;;;6181710;23;20414;-63
2023/12/13 04:57:16;;;;;;;19.83;9.60;;;6.30;99.90;;;;;;6180537;23;20418;-62
2023/12/13 04:59:43;;;;;;;12.50;9.67;;;6.30;99.90;;;;;;6180937;23;20213;-62
2023/12/13 05:02:10;;;;;;;19.27;10.07;;;6.40;99.90;;;;;;6181640;23;20453;-58
2023/12/13 05:04:37;;;;;;;21.73;11.00;;;6.40;99.90;;;;;;6181284;23;20389;-60
2023/12/13 05:07:05;;;;;;;14.50;8.17;;;6.40;99.90;;;;;;6181695;23;20401;-63
2023/12/13 05:09:32;;;;;;;17.33;8.70;;;6.40;99.90;;;;;;6181070;23;20430;-63
2023/12/13 05:11:58;;;;;;;14.20;8.73;;;6.30;99.90;;;;;;6181119;23;20414;-63
2023/12/13 05:14:25;;;;;;;16.93;8.77;;;6.30;99.90;;;;;;6181669;23;20428;-62
2023/12/13 05:16:52;;;;;;;17.27;9.77;;;6.30;99.90;;;;;;6180566;23;20432;-63
2023/12/13 05:19:19;;;;;;;19.57;9.90;;;6.30;99.90;;;;;;6181476;23;20440;-63
2023/12/13 05:21:46;;;;;;;20.13;8.87;;;6.20;99.90;;;;;;6180970;23;20405;-63
2023/12/13 05:24:14;;;;;;;19.07;10.70;;;6.20;99.90;;;;;;6181325;23;20472;-62
2023/12/13 05:26:41;;;;;;;18.23;8.50;;;6.20;99.90;;;;;;6181447;23;20394;-63
2023/12/13 05:29:08;;;;;;;19.90;10.20;;;6.20;99.90;;;;;;6181106;23;20390;-62
2023/12/13 05:31:34;;;;;;;26.20;10.90;;;6.20;99.90;;;;;;6181122;23;20402;-60
2023/12/13 05:34:01;;;;;;;18.07;11.00;;;6.20;99.90;;;;;;6180743;23;20414;-63
2023/12/13 05:36:29;;;;;;;17.37;9.97;;;6.20;99.90;;;;;;6180489;23;21036;-62
2023/12/13 05:38:55;;;;;;;15.07;9.13;;;6.20;99.90;;;;;;6180612;23;20650;-63
2023/12/13 05:41:23;;;;;;;18.63;10.47;;;6.20;99.90;;;;;;6180297;23;20416;-62
2023/12/13 05:43:50;;;;;;;18.23;9.10;;;6.20;99.90;;;;;;6181235;23;20429;-63
2023/12/13 05:46:17;;;;;;;20.20;11.07;;;6.20;99.90;;;;;;6180299;23;20406;-63
2023/12/13 05:48:44;;;;;;;19.87;9.60;;;6.20;99.90;;;;;;6181217;23;20413;-61
2023/12/13 05:51:11;;;;;;;15.40;9.40;;;6.30;99.90;;;;;;6181096;23;20390;-63
2023/12/13 05:53:38;;;;;;;20.70;10.87;;;6.30;99.90;;;;;;6181211;23;20386;-63
2023/12/13 05:56:05;;;;;;;18.23;11.10;;;6.30;99.90;;;;;;6181173;23;20441;-60
2023/12/13 05:58:34;;;;;;;16.97;10.27;;;6.30;99.90;;;;;;6179393;23;20497;-63
2023/12/13 06:01:00;;;;;;;18.00;10.77;;;6.40;99.90;;;;;;6179541;23;20442;-62
2023/12/13 06:03:28;;;;;;;16.10;11.37;;;6.40;99.90;;;;;;6180123;23;20421;-62
2023/12/13 06:05:55;;;;;;;26.03;11.87;;;6.50;99.90;;;;;;6179992;23;20406;-63
2023/12/13 06:08:24;;;;;;;23.87;10.53;;;6.40;99.90;;;;;;6179695;23;20398;-63
2023/12/13 06:10:50;;;;;;;16.27;10.27;;;6.50;99.90;;;;;;6180073;23;20406;-62
2023/12/13 06:13:17;;;;;;;13.37;10.13;;;6.40;99.90;;;;;;6179636;23;20421;-60
2023/12/13 06:15:47;;;;;;;19.70;10.57;;;6.40;99.90;;;;;;6179481;23;20497;-61
2023/12/13 06:18:14;;;;;;;22.63;10.97;;;6.40;99.90;;;;;;6179979;23;20382;-62
2023/12/13 06:20:40;;;;;;;23.50;11.33;;;6.50;99.90;;;;;;6179456;23;20517;-63
2023/12/13 06:23:07;;;;;;;18.00;11.83;;;6.50;99.90;;;;;;6179429;23;20429;-63
2023/12/13 06:25:34;;;;;;;20.20;11.10;;;6.50;99.90;;;;;;6180034;23;20486;-61
2023/12/13 06:28:01;;;;;;;17.43;11.13;;;6.50;99.90;;;;;;6179744;23;20492;-60
2023/12/13 06:30:28;;;;;;;27.83;12.93;;;6.50;99.90;;;;;;6179853;23;20421;-62
2023/12/13 06:32:56;;;;;;;19.20;10.20;;;6.50;99.90;;;;;;6179761;23;20402;-62
2023/12/13 06:35:23;;;;;;;18.27;11.97;;;6.50;99.90;;;;;;6179513;23;20401;-61
2023/12/13 06:37:50;;;;;;;15.30;11.60;;;6.50;99.90;;;;;;6180007;23;20405;-61
2023/12/13 06:40:18;;;;;;;15.03;10.20;;;6.50;99.90;;;;;;6179110;23;20437;-62
2023/12/13 06:42:45;;;;;;;16.33;9.93;;;6.50;99.90;;;;;;6179673;23;20464;-62
2023/12/13 06:45:11;;;;;;;16.10;11.03;;;6.50;99.90;;;;;;6179208;23;20393;-61
2023/12/13 06:47:38;;;;;;;15.77;10.53;;;6.50;99.90;;;;;;6179540;23;20402;-62
2023/12/13 06:50:08;;;;;;;13.33;10.00;;;6.50;99.90;;;;;;6179281;23;20406;-60
2023/12/13 06:52:34;;;;;;;17.17;11.10;;;6.50;99.90;;;;;;6179260;23;20433;-63
2023/12/13 06:55:01;;;;;;;16.07;10.77;;;6.50;99.90;;;;;;6180118;23;20437;-60
2023/12/13 06:57:28;;;;;;;15.80;9.27;;;6.50;99.90;;;;;;6179954;23;20401;-62
2023/12/13 07:00:16;;;;;;;16.17;10.30;;;6.50;99.90;;;;;;6179588;23;20433;-61
2023/12/13 07:03:06;;;;;;;18.80;11.17;;;6.50;99.90;;;;;;6180578;23;20381;-60
2023/12/13 07:05:41;;;;;;;19.23;9.23;;;6.60;99.90;;;;;;6181477;23;20408;-59
2023/12/13 07:08:08;;;;;;;17.00;10.00;;;6.60;99.90;;;;;;6181406;23;20444;-63
2023/12/13 07:10:35;;;;;;;14.37;8.40;;;6.50;99.90;;;;;;6182235;23;20440;-63
2023/12/13 07:13:02;;;;;;;16.20;10.57;;;6.50;99.90;;;;;;6182128;23;20418;-61
2023/12/13 07:15:28;;;;;;;17.33;8.67;;;6.50;99.90;;;;;;6182364;23;20381;-62
2023/12/13 07:17:55;;;;;;;16.73;9.77;;;6.50;99.90;;;;;;6181601;23;20402;-60
2023/12/13 07:20:41;;;;;;;14.53;8.20;;;6.50;99.90;;;;;;6181165;23;20445;-63
2023/12/13 07:23:10;;;;;;;11.97;7.00;;;6.50;99.90;;;;;;6181841;23;20410;-62
2023/12/13 07:25:37;;;;;;;9.73;7.70;;;6.50;99.90;;;;;;6182192;23;20418;-63
2023/12/13 07:28:04;;;;;;;10.00;8.27;;;6.40;99.90;;;;;;6181505;23;20405;-63
2023/12/13 07:30:33;;;;;;;16.60;8.77;;;6.40;99.90;;;;;;6181364;23;20401;-64
2023/12/13 07:33:00;;;;;;;14.67;7.80;;;6.40;99.90;;;;;;6181099;23;20425;-63
2023/12/13 07:35:27;;;;;;;11.17;7.67;;;6.40;99.90;;;;;;6181657;23;20402;-63
2023/12/13 07:37:58;;;;;;;13.50;8.77;;;6.40;99.90;;;;;;6181209;23;20425;-62
2023/12/13 07:40:25;;;;;;;14.73;8.60;;;6.40;99.90;;;;;;6180780;23;20473;-60
2023/12/13 07:42:51;;;;;;;10.27;7.33;;;6.40;99.90;;;;;;6181324;23;20791;-61
2023/12/13 07:45:20;;;;;;;13.10;8.67;;;6.50;99.90;;;;;;6180901;23;20414;-61
2023/12/13 07:47:48;;;;;;;14.73;8.60;;;6.50;99.90;;;;;;6181411;23;20414;-64
2023/12/13 07:50:15;;;;;;;15.23;8.00;;;6.50;99.90;;;;;;6181115;23;20406;-63
2023/12/13 07:52:45;;;;;;;17.97;11.13;;;6.50;99.90;;;;;;6181357;23;20401;-63
2023/12/13 07:55:18;;;;;;;17.23;9.27;;;6.50;99.90;;;;;;6180793;23;20406;-62
2023/12/13 07:57:45;;;;;;;17.60;9.70;;;6.50;99.90;;;;;;6181531;23;20430;-62
2023/12/13 08:00:18;;;;;;;16.50;9.67;;;6.60;99.90;;;;;;6180800;23;20444;-57
2023/12/13 08:02:45;;;;;;;20.37;10.70;;;6.60;99.90;;;;;;6180678;23;20425;-63
2023/12/13 08:05:22;;;;;;;14.40;9.43;;;6.60;99.90;;;;;;6181274;23;20410;-62
2023/12/13 08:07:49;;;;;;;14.90;10.27;;;6.60;99.90;;;;;;6180442;23;20416;-63
2023/12/13 08:10:18;;;;;;;14.03;9.70;;;6.70;99.90;;;;;;6181112;23;20421;-63
2023/12/13 08:12:45;;;;;;;17.57;10.77;;;6.60;99.90;;;;;;6181044;23;20406;-64
2023/12/13 08:15:16;;;;;;;20.67;10.37;;;6.70;99.90;;;;;;6180544;23;20406;-64
2023/12/13 08:17:43;;;;;;;17.87;10.07;;;6.70;99.90;;;;;;6181050;23;20458;-63
2023/12/13 08:20:12;;;;;;;15.23;8.77;;;6.70;99.90;;;;;;6180567;23;20528;-58
2023/12/13 08:22:39;;;;;;;16.90;10.13;;;6.70;99.90;;;;;;6180361;23;20409;-60
2023/12/13 08:25:06;;;;;;;15.77;10.17;;;6.70;99.90;;;;;;6180719;23;20464;-60
2023/12/13 08:27:35;;;;;;;15.90;10.60;;;6.70;99.90;;;;;;6180451;23;20417;-60
2023/12/13 08:30:01;;;;;;;16.33;9.83;;;6.70;99.90;;;;;;6180781;23;20884;-60
2023/12/13 08:32:29;;;;;;;15.00;9.63;;;6.70;99.90;;;;;;6180979;23;20452;-57
2023/12/13 08:34:56;;;;;;;17.67;9.80;;;6.70;99.90;;;;;;6180211;23;20469;-58
2023/12/13 08:37:24;;;;;;;20.80;11.77;;;6.70;99.90;;;;;;6180689;23;20406;-60
2023/12/13 08:39:52;;;;;;;17.90;11.00;;;6.70;99.90;;;;;;6180777;23;20416;-61
2023/12/13 08:42:20;;;;;;;17.47;9.97;;;6.80;99.90;;;;;;6180658;23;20429;-59
2023/12/13 08:44:48;;;;;;;15.73;10.73;;;6.80;99.90;;;;;;6181361;23;20513;-60
2023/12/13 08:47:15;;;;;;;17.80;11.30;;;6.70;99.90;;;;;;6170511;23;20412;-62
2023/12/13 08:49:41;;;;;;;19.90;11.50;;;6.70;99.90;;;;;;6157873;23;20486;-61
2023/12/13 08:52:08;;;;;;;29.20;11.50;;;6.70;99.90;;;;;;6157718;23;20405;-60
2023/12/13 08:54:35;;;;;;;19.00;12.07;;;6.70;99.90;;;;;;6157665;23;20425;-61
2023/12/13 08:57:02;;;;;;;18.03;11.33;;;6.70;99.90;;;;;;6157691;23;20429;-59
2023/12/13 08:59:29;;;;;;;16.67;11.10;;;6.70;99.90;;;;;;6157041;23;20885;-61
2023/12/13 09:01:57;;;;;;;20.07;12.00;;;6.70;99.90;;;;;;6157098;23;20441;-61
2023/12/13 09:04:24;;;;;;;16.77;10.70;;;6.70;99.90;;;;;;6157042;23;20931;-61
2023/12/13 09:06:51;;;;;;;23.10;12.63;;;6.70;99.90;;;;;;6157230;23;20732;-60
2023/12/13 09:09:18;;;;;;;21.30;12.10;;;6.80;99.90;;;;;;6157163;23;20456;-60
2023/12/13 09:11:46;;;;;;;21.97;12.30;;;6.80;99.90;;;;;;6157297;23;20448;-59
2023/12/13 09:14:13;;;;;;;18.70;11.67;;;6.80;99.90;;;;;;6157187;23;20774;-60
2023/12/13 09:16:40;;;;;;;17.57;10.97;;;6.80;99.90;;;;;;6156717;23;20437;-58
2023/12/13 09:19:08;;;;;;;20.90;12.63;;;6.80;99.90;;;;;;6156939;23;20432;-60
2023/12/13 09:21:35;;;;;;;23.20;12.70;;;6.80;99.90;;;;;;6157080;23;20524;-60
2023/12/13 09:24:02;;;;;;;22.30;13.67;;;6.80;99.90;;;;;;6157063;23;20429;-62
2023/12/13 09:26:29;;;;;;;23.87;13.20;;;6.80;99.90;;;;;;6157046;23;20477;-60
2023/12/13 09:28:58;;;;;;;21.50;12.07;;;6.80;99.90;;;;;;6157233;23;20444;-59
2023/12/13 09:31:25;;;;;;;21.40;12.93;;;6.80;99.90;;;;;;6162909;23;20456;-61
2023/12/13 09:33:52;;;;;;;18.20;12.20;;;6.80;99.90;;;;;;6163221;23;20410;-61
2023/12/13 09:36:20;;;;;;;26.63;13.40;;;6.80;99.90;;;;;;6163808;23;20463;-61
2023/12/13 09:38:47;;;;;;;20.13;12.10;;;6.80;99.90;;;;;;6156948;23;20465;-61
2023/12/13 09:41:21;;;;;;;21.87;12.63;;;6.80;99.90;;;;;;6157290;23;20507;-56
2023/12/13 09:43:49;;;;;;;25.40;12.67;;;6.80;99.90;;;;;;6157257;23;20445;-60
2023/12/13 09:46:19;;;;;;;28.47;14.40;;;6.80;99.90;;;;;;6157143;23;20441;-60
2023/12/13 09:48:46;;;;;;;28.77;13.57;;;6.90;99.90;;;;;;6156840;23;20464;-60
2023/12/13 09:51:14;;;;;;;24.20;13.30;;;6.90;99.90;;;;;;6157092;23;20467;-59
2023/12/13 09:53:45;;;;;;;26.83;14.60;;;6.80;99.90;;;;;;6156384;23;20742;-59
2023/12/13 09:56:12;;;;;;;26.37;14.00;;;6.80;99.90;;;;;;6156763;23;20821;-61
2023/12/13 09:58:41;;;;;;;21.40;12.23;;;6.80;99.90;;;;;;6157288;23;20480;-62
2023/12/13 10:01:10;;;;;;;19.23;12.80;;;6.80;99.90;;;;;;6157141;23;20536;-61
2023/12/13 10:03:39;;;;;;;21.40;13.53;;;6.80;99.90;;;;;;6156729;23;20465;-60
2023/12/13 10:06:07;;;;;;;20.63;12.40;;;6.80;99.90;;;;;;6156893;23;20493;-60
2023/12/13 10:08:34;;;;;;;28.20;15.07;;;6.80;99.90;;;;;;6156670;23;20410;-61
2023/12/13 10:11:04;;;;;;;20.60;14.70;;;6.80;99.90;;;;;;6157170;23;20694;-60
2023/12/13 10:13:31;;;;;;;22.87;15.13;;;6.80;99.90;;;;;;6157167;23;20414;-60
2023/12/13 10:16:09;;;;;;;23.73;13.50;;;6.80;99.90;;;;;;6156966;23;20434;-59
2023/12/13 10:18:36;;;;;;;27.80;15.13;;;6.80;99.90;;;;;;6156767;23;20501;-60
2023/12/13 10:21:04;;;;;;;27.90;12.57;;;6.80;99.90;;;;;;6156965;23;20441;-60
2023/12/13 10:23:31;;;;;;;29.90;16.80;;;6.90;99.90;;;;;;6156647;23;20514;-60
2023/12/13 10:25:58;;;;;;;24.33;13.80;;;6.90;99.90;;;;;;6157102;23;20632;-61
2023/12/13 10:28:26;;;;;;;30.43;13.33;;;6.90;99.90;;;;;;6157342;23;20425;-60
2023/12/13 10:30:54;;;;;;;23.00;14.90;;;6.90;99.90;;;;;;6156898;23;20398;-61
2023/12/13 10:33:21;;;;;;;22.13;15.03;;;6.90;99.90;;;;;;6157019;23;20402;-60
2023/12/13 10:35:50;;;;;;;24.30;13.73;;;6.90;99.90;;;;;;6156574;23;20916;-60
2023/12/13 10:38:18;;;;;;;30.17;15.03;;;6.90;99.90;;;;;;6158002;23;20406;-60
2023/12/13 10:40:46;;;;;;;30.50;14.90;;;7.00;99.90;;;;;;6158997;23;20541;-61
2023/12/13 10:43:14;;;;;;;29.30;15.93;;;7.00;99.90;;;;;;6158845;23;20668;-60
2023/12/13 10:45:47;;;;;;;25.20;14.80;;;7.00;99.90;;;;;;6158562;23;20417;-61
2023/12/13 10:48:17;;;;;;;31.53;15.93;;;7.00;99.90;;;;;;6158523;23;20457;-59
2023/12/13 10:50:45;;;;;;;31.20;14.10;;;6.90;99.90;;;;;;6159080;23;20413;-61
2023/12/13 10:53:13;;;;;;;22.03;13.73;;;7.00;99.90;;;;;;6157275;23;20449;-60
2023/12/13 10:55:40;;;;;;;26.87;15.40;;;7.00;99.90;;;;;;6157985;23;20401;-61
2023/12/13 10:58:07;;;;;;;23.73;14.20;;;7.00;99.90;;;;;;6158169;23;20802;-62
2023/12/13 11:00:36;;;;;;;23.10;13.07;;;6.90;99.90;;;;;;6158010;23;20430;-60
2023/12/13 11:03:12;;;;;;;31.13;15.80;;;6.90;99.90;;;;;;6158850;23;20508;-60
2023/12/13 11:05:39;;;;;;;23.70;15.20;;;6.80;99.90;;;;;;6158478;23;20420;-61
2023/12/13 11:08:15;;;;;;;30.13;14.43;;;6.90;99.90;;;;;;6158498;23;20409;-59
2023/12/13 11:10:43;;;;;;;29.30;14.50;;;6.90;99.90;;;;;;6158631;23;20714;-52
2023/12/13 11:13:10;;;;;;;24.43;15.90;;;6.80;99.90;;;;;;6158170;23;20916;-61
2023/12/13 11:15:44;;;;;;;25.10;15.70;;;7.10;99.90;;;;;;6158784;23;20418;-57
2023/12/13 11:18:12;;;;;;;28.27;15.83;;;7.10;99.90;;;;;;6158454;23;20461;-59
2023/12/13 11:20:47;;;;;;;23.53;14.47;;;7.10;99.90;;;;;;6158722;23;20428;-63
2023/12/13 11:23:14;;;;;;;26.53;15.00;;;7.10;99.90;;;;;;6182162;23;20396;-66
2023/12/13 11:25:45;;;;;;;23.23;14.03;;;7.00;99.90;;;;;;6183142;23;20493;-59
2023/12/13 11:28:21;;;;;;;25.97;14.80;;;7.00;99.90;;;;;;6183572;23;20409;-61
2023/12/13 11:30:48;;;;;;;27.10;16.00;;;7.00;99.90;;;;;;6182134;23;20425;-57
2023/12/13 11:33:20;;;;;;;25.10;14.47;;;7.00;99.90;;;;;;6183158;23;20396;-61
2023/12/13 11:35:48;;;;;;;27.63;14.30;;;7.00;99.90;;;;;;6182549;23;20444;-63
2023/12/13 11:38:14;;;;;;;23.07;14.40;;;7.00;99.90;;;;;;6182760;23;20405;-62
2023/12/13 11:40:41;;;;;;;30.13;13.60;;;7.00;99.90;;;;;;6181930;23;20405;-61
2023/12/13 11:43:09;;;;;;;26.90;14.43;;;7.00;99.90;;;;;;6182402;23;20394;-59
2023/12/13 11:45:39;;;;;;;29.43;14.90;;;7.10;99.90;;;;;;6182312;23;20406;-60
2023/12/13 11:48:06;;;;;;;21.50;14.07;;;7.00;99.90;;;;;;6182507;23;20429;-62
2023/12/13 11:50:34;;;;;;;28.33;14.57;;;7.10;99.90;;;;;;6182454;23;20417;-64
2023/12/13 11:53:03;;;;;;;33.07;15.17;;;7.00;99.90;;;;;;6181923;23;20426;-64
2023/12/13 11:55:30;;;;;;;27.77;15.00;;;7.00;99.90;;;;;;6182294;23;20425;-62
2023/12/13 11:58:03;;;;;;;23.50;13.20;;;7.10;99.90;;;;;;6182518;23;20421;-64
2023/12/13 12:00:30;;;;;;;27.37;15.20;;;7.10;99.90;;;;;;6183052;23;20409;-62
2023/12/13 12:02:57;;;;;;;24.93;13.30;;;7.10;99.90;;;;;;6183058;23;20445;-60
2023/12/13 12:05:24;;;;;;;24.03;13.47;;;7.10;99.90;;;;;;6183388;23;20394;-63
2023/12/13 12:08:01;;;;;;;25.47;15.00;;;7.20;99.90;;;;;;6182872;23;20503;-63
2023/12/13 12:10:30;;;;;;;26.67;14.40;;;7.30;99.90;;;;;;6182618;23;20472;-61
2023/12/13 12:13:00;;;;;;;28.07;14.87;;;7.30;99.90;;;;;;6182442;23;20394;-62
2023/12/13 12:15:30;;;;;;;20.60;11.97;;;7.40;99.90;;;;;;6182269;23;20406;-63
2023/12/13 12:17:57;;;;;;;28.43;15.23;;;7.40;99.90;;;;;;6182189;23;20441;-64
2023/12/13 12:20:26;;;;;;;25.63;15.27;;;7.30;99.90;;;;;;6181497;23;20437;-62
2023/12/13 12:22:54;;;;;;;21.30;12.60;;;7.30;99.90;;;;;;6181137;23;20425;-59
2023/12/13 12:25:24;;;;;;;22.47;14.00;;;7.30;99.90;;;;;;6181345;23;20405;-64
2023/12/13 12:27:51;;;;;;;27.53;14.47;;;7.30;99.90;;;;;;6182366;23;20452;-62
2023/12/13 12:30:19;;;;;;;27.60;13.77;;;7.30;99.90;;;;;;6181145;23;20418;-64
2023/12/13 12:32:48;;;;;;;21.60;12.60;;;7.30;99.90;;;;;;6181827;23;20441;-62
2023/12/13 12:35:15;;;;;;;27.83;13.90;;;7.30;99.90;;;;;;6182635;23;20401;-59
2023/12/13 12:37:42;;;;;;;27.30;14.33;;;7.40;99.90;;;;;;6181543;23;20468;-65
2023/12/13 12:40:11;;;;;;;30.10;13.40;;;7.30;99.90;;;;;;6182375;23;20386;-63
2023/12/13 12:42:41;;;;;;;27.80;13.80;;;7.30;99.90;;;;;;6181340;23;20500;-63
2023/12/13 12:45:10;;;;;;;24.00;11.60;;;7.40;99.90;;;;;;6181791;23;20398;-62